LESA/SLM METAR and TAF weather

Enter ICAO airport designator
Station Type Date Time Source
LESA METAR 2020/03/31 13:00 UTC NOAA

LESA 311300Z 12014KT 9999 -RA FEW018 SCT042 07/03 Q1004


Station Type Date Time Source
LESA Decoded METAR 2020/03/31 13:00 UTC NOAA

Salamanca / Matacan, Spain (LESA) 40-57N 005-30W 795M
Mar 31, 2020 - 09:00 AM EDT / 2020.03.31 1300 UTC
Wind: from the ESE (120 degrees) at 16 MPH (14 KT):0
Visibility: greater than 7 mile(s):0
Sky conditions: partly cloudy
Weather: light rain
Temperature: 44 F (7 C)
Dew Point: 37 F (3 C)
Relative Humidity: 75%
Pressure (altimeter): 29.65 in. Hg (1004 hPa)
ob: LESA 311300Z 12014KT 9999 -RA FEW018 SCT042 07/03 Q1004
cycle: 13

Station Type Date Time Source
LESA TAF 2020/03/31 12:50 UTC NOAA

TAF
AMD LESA 311243Z 3112/0112 VRB05KT 9999 SCT012 BKN020 TX08/3114Z TN00/0106Z PROB40
TEMPO 3112/3113 1500 SN OVC004
TEMPO 3113/3124 4000 RA BKN008
TEMPO 3112/3118 10012KT
TEMPO 0110/0112 23010KT

Example: see airport list